sensor_id;sensor_type;location;lat;lon;timestamp;pressure;altitude;pressure_sealevel;temperature
42119;BMP280;27783;42.782;23.274;2022-07-11T00:02:21;95487.81;;;20.91
42119;BMP280;27783;42.782;23.274;2022-07-11T00:04:53;95483.34;;;20.88
42119;BMP280;27783;42.782;23.274;2022-07-11T00:07:19;95483.81;;;20.87
42119;BMP280;27783;42.782;23.274;2022-07-11T00:09:45;95478.59;;;20.84
42119;BMP280;27783;42.782;23.274;2022-07-11T00:12:14;95481.72;;;20.82
42119;BMP280;27783;42.782;23.274;2022-07-11T00:14:40;95486.03;;;20.80
42119;BMP280;27783;42.782;23.274;2022-07-11T00:17:08;95495.72;;;20.77
42119;BMP280;27783;42.782;23.274;2022-07-11T00:19:37;95497.34;;;20.75
42119;BMP280;27783;42.782;23.274;2022-07-11T00:22:03;95498.22;;;20.72
42119;BMP280;27783;42.782;23.274;2022-07-11T00:24:29;95509.84;;;20.69
42119;BMP280;27783;42.782;23.274;2022-07-11T00:26:56;95502.25;;;20.68
42119;BMP280;27783;42.782;23.274;2022-07-11T00:29:23;95505.06;;;20.64
42119;BMP280;27783;42.782;23.274;2022-07-11T00:31:49;95507.72;;;20.64
42119;BMP280;27783;42.782;23.274;2022-07-11T00:34:15;95508.63;;;20.61
42119;BMP280;27783;42.782;23.274;2022-07-11T00:36:44;95507.16;;;20.60
42119;BMP280;27783;42.782;23.274;2022-07-11T00:39:09;95508.78;;;20.58
42119;BMP280;27783;42.782;23.274;2022-07-11T00:41:35;95509.22;;;20.56
42119;BMP280;27783;42.782;23.274;2022-07-11T00:44:01;95519.63;;;20.54
42119;BMP280;27783;42.782;23.274;2022-07-11T00:46:28;95514.72;;;20.53
42119;BMP280;27783;42.782;23.274;2022-07-11T00:48:57;95518.28;;;20.50
42119;BMP280;27783;42.782;23.274;2022-07-11T00:51:23;95529.75;;;20.51
42119;BMP280;27783;42.782;23.274;2022-07-11T00:53:51;95517.53;;;20.50
42119;BMP280;27783;42.782;23.274;2022-07-11T00:56:20;95516.50;;;20.47
42119;BMP280;27783;42.782;23.274;2022-07-11T00:58:47;95515.75;;;20.47
42119;BMP280;27783;42.782;23.274;2022-07-11T01:01:13;95508.16;;;20.45
42119;BMP280;27783;42.782;23.274;2022-07-11T01:03:38;95511.72;;;20.42
42119;BMP280;27783;42.782;23.274;2022-07-11T01:06:25;95514.13;;;20.40
42119;BMP280;27783;42.782;23.274;2022-07-11T01:08:50;95509.50;;;20.41
42119;BMP280;27783;42.782;23.274;2022-07-11T01:11:16;95512.63;;;20.39
42119;BMP280;27783;42.782;23.274;2022-07-11T01:13:43;95517.97;;;20.39
42119;BMP280;27783;42.782;23.274;2022-07-11T01:16:15;95512.63;;;20.39
42119;BMP280;27783;42.782;23.274;2022-07-11T01:18:45;95514.25;;;20.37
42119;BMP280;27783;42.782;23.274;2022-07-11T01:21:37;95518.84;;;20.37
42119;BMP280;27783;42.782;23.274;2022-07-11T01:24:10;95516.03;;;20.31
42119;BMP280;27783;42.782;23.274;2022-07-11T01:26:36;95519.88;;;20.30
42119;BMP280;27783;42.782;23.274;2022-07-11T01:29:28;95522.25;;;20.28
42119;BMP280;27783;42.782;23.274;2022-07-11T01:31:54;95521.50;;;20.28
42119;BMP280;27783;42.782;23.274;2022-07-11T01:34:19;95522.25;;;20.28
42119;BMP280;27783;42.782;23.274;2022-07-11T01:36:45;95515.28;;;20.31
42119;BMP280;27783;42.782;23.274;2022-07-11T01:39:10;95515.38;;;20.27
42119;BMP280;27783;42.782;23.274;2022-07-11T01:41:35;95513.13;;;20.26
42119;BMP280;27783;42.782;23.274;2022-07-11T01:44:01;95510.94;;;20.24
42119;BMP280;27783;42.782;23.274;2022-07-11T01:46:29;95509.56;;;20.20
42119;BMP280;27783;42.782;23.274;2022-07-11T01:48:54;95512.81;;;20.15
42119;BMP280;27783;42.782;23.274;2022-07-11T01:51:21;95517.28;;;20.18
42119;BMP280;27783;42.782;23.274;2022-07-11T01:53:48;95517.28;;;20.18
42119;BMP280;27783;42.782;23.274;2022-07-11T01:56:21;95514.44;;;20.13
42119;BMP280;27783;42.782;23.274;2022-07-11T01:58:48;95518.28;;;20.12
42119;BMP280;27783;42.782;23.274;2022-07-11T02:01:14;95509.53;;;20.11
42119;BMP280;27783;42.782;23.274;2022-07-11T02:03:40;95520.06;;;20.06
42119;BMP280;27783;42.782;23.274;2022-07-11T02:06:05;95514.22;;;19.99
42119;BMP280;27783;42.782;23.274;2022-07-11T02:08:31;95520.34;;;19.99
42119;BMP280;27783;42.782;23.274;2022-07-11T02:10:57;95516.47;;;20.00
42119;BMP280;27783;42.782;23.274;2022-07-11T02:13:23;95514.69;;;19.97
42119;BMP280;27783;42.782;23.274;2022-07-11T02:15:49;95517.66;;;19.99
42119;BMP280;27783;42.782;23.274;2022-07-11T02:18:16;95529.09;;;20.00
42119;BMP280;27783;42.782;23.274;2022-07-11T02:20:43;95514.56;;;20.01
42119;BMP280;27783;42.782;23.274;2022-07-11T02:23:11;95516.47;;;20.00
42119;BMP280;27783;42.782;23.274;2022-07-11T02:25:37;95531.63;;;19.94
42119;BMP280;27783;42.782;23.274;2022-07-11T02:28:05;95537.72;;;19.95
42119;BMP280;27783;42.782;23.274;2022-07-11T02:30:38;95531.00;;;19.90
42119;BMP280;27783;42.782;23.274;2022-07-11T02:33:13;95542.88;;;19.89
42119;BMP280;27783;42.782;23.274;2022-07-11T02:35:42;95533.69;;;19.90
42119;BMP280;27783;42.782;23.274;2022-07-11T02:38:07;95541.41;;;19.88
42119;BMP280;27783;42.782;23.274;2022-07-11T02:40:32;95544.22;;;19.85
42119;BMP280;27783;42.782;23.274;2022-07-11T02:43:02;95544.66;;;19.84
42119;BMP280;27783;42.782;23.274;2022-07-11T02:45:28;95542.25;;;19.86
42119;BMP280;27783;42.782;23.274;2022-07-11T02:47:53;95546.16;;;19.85
42119;BMP280;27783;42.782;23.274;2022-07-11T02:50:18;95548.50;;;19.83
42119;BMP280;27783;42.782;23.274;2022-07-11T02:52:44;95555.47;;;19.80
42119;BMP280;27783;42.782;23.274;2022-07-11T02:55:11;95546.41;;;19.78
42119;BMP280;27783;42.782;23.274;2022-07-11T02:57:38;95555.19;;;19.78
42119;BMP280;27783;42.782;23.274;2022-07-11T03:00:13;95556.03;;;19.75
42119;BMP280;27783;42.782;23.274;2022-07-11T03:02:38;95563.00;;;19.73
42119;BMP280;27783;42.782;23.274;2022-07-11T03:05:04;95564.75;;;19.67
42119;BMP280;27783;42.782;23.274;2022-07-11T03:07:30;95564.22;;;19.72
42119;BMP280;27783;42.782;23.274;2022-07-11T03:09:55;95557.03;;;19.69
42119;BMP280;27783;42.782;23.274;2022-07-11T03:12:23;95564.94;;;19.72
42119;BMP280;27783;42.782;23.274;2022-07-11T03:14:49;95573.41;;;19.71
42119;BMP280;27783;42.782;23.274;2022-07-11T03:17:17;95572.25;;;19.72
42119;BMP280;27783;42.782;23.274;2022-07-11T03:19:45;95572.25;;;19.72
42119;BMP280;27783;42.782;23.274;2022-07-11T03:22:12;95579.06;;;19.73
42119;BMP280;27783;42.782;23.274;2022-07-11T03:24:38;95585.91;;;19.74
42119;BMP280;27783;42.782;23.274;2022-07-11T03:27:05;95588.28;;;19.72
42119;BMP280;27783;42.782;23.274;2022-07-11T03:29:32;95588.28;;;19.72
42119;BMP280;27783;42.782;23.274;2022-07-11T03:32:00;95585.16;;;19.73
42119;BMP280;27783;42.782;23.274;2022-07-11T03:34:26;95585.28;;;19.70
42119;BMP280;27783;42.782;23.274;2022-07-11T03:36:51;95590.09;;;19.75
42119;BMP280;27783;42.782;23.274;2022-07-11T03:39:17;95582.06;;;19.75
42119;BMP280;27783;42.782;23.274;2022-07-11T03:41:42;95593.94;;;19.74
42119;BMP280;27783;42.782;23.274;2022-07-11T03:44:08;95585.91;;;19.74
42119;BMP280;27783;42.782;23.274;2022-07-11T03:46:34;95592.31;;;19.76
42119;BMP280;27783;42.782;23.274;2022-07-11T03:48:59;95599.91;;;19.78
42119;BMP280;27783;42.782;23.274;2022-07-11T03:51:25;95597.72;;;19.85
42119;BMP280;27783;42.782;23.274;2022-07-11T03:53:50;95600.41;;;19.85
42119;BMP280;27783;42.782;23.274;2022-07-11T03:56:16;95599.53;;;19.88
42119;BMP280;27783;42.782;23.274;2022-07-11T03:58:50;95613.06;;;19.93
42119;BMP280;27783;42.782;23.274;2022-07-11T04:01:16;95605.97;;;19.99
42119;BMP280;27783;42.782;23.274;2022-07-11T04:03:41;95611.81;;;20.06
42119;BMP280;27783;42.782;23.274;2022-07-11T04:06:07;95617.81;;;20.19
42119;BMP280;27783;42.782;23.274;2022-07-11T04:08:33;95614.25;;;20.22
42119;BMP280;27783;42.782;23.274;2022-07-11T04:10:59;95604.00;;;20.20
42119;BMP280;27783;42.782;23.274;2022-07-11T04:13:25;95612.94;;;20.26
42119;BMP280;27783;42.782;23.274;2022-07-11T04:15:51;95617.78;;;20.31
42119;BMP280;27783;42.782;23.274;2022-07-11T04:18:16;95617.47;;;20.38
42119;BMP280;27783;42.782;23.274;2022-07-11T04:20:42;95625.22;;;20.45
42119;BMP280;27783;42.782;23.274;2022-07-11T04:23:08;95613.22;;;20.49
42119;BMP280;27783;42.782;23.274;2022-07-11T04:25:34;95622.91;;;20.55
42119;BMP280;27783;42.782;23.274;2022-07-11T04:27:59;95625.16;;;20.57
42119;BMP280;27783;42.782;23.274;2022-07-11T04:30:25;95625.59;;;20.55
42119;BMP280;27783;42.782;23.274;2022-07-11T04:32:51;95628.72;;;20.54
42119;BMP280;27783;42.782;23.274;2022-07-11T04:35:17;95620.81;;;20.51
42119;BMP280;27783;42.782;23.274;2022-07-11T04:37:43;95626.19;;;20.51
42119;BMP280;27783;42.782;23.274;2022-07-11T04:40:09;95629.16;;;20.53
42119;BMP280;27783;42.782;23.274;2022-07-11T04:42:36;95635.69;;;20.52
42119;BMP280;27783;42.782;23.274;2022-07-11T04:45:04;95639.44;;;20.54
42119;BMP280;27783;42.782;23.274;2022-07-11T04:47:30;95628.63;;;20.75
42119;BMP280;27783;42.782;23.274;2022-07-11T04:49:55;95638.69;;;20.62
42119;BMP280;27783;42.782;23.274;2022-07-11T04:52:22;95635.41;;;20.58
42119;BMP280;27783;42.782;23.274;2022-07-11T04:54:53;95635.72;;;20.60
42119;BMP280;27783;42.782;23.274;2022-07-11T04:57:19;95641.84;;;20.61
42119;BMP280;27783;42.782;23.274;2022-07-11T04:59:44;95632.91;;;20.64
42119;BMP280;27783;42.782;23.274;2022-07-11T05:02:10;95641.72;;;20.73
42119;BMP280;27783;42.782;23.274;2022-07-11T05:04:36;95643.66;;;20.72
42119;BMP280;27783;42.782;23.274;2022-07-11T05:07:02;95645.56;;;20.72
42119;BMP280;27783;42.782;23.274;2022-07-11T05:09:27;95636.03;;;20.71
42119;BMP280;27783;42.782;23.274;2022-07-11T05:11:53;95638.16;;;20.76
42119;BMP280;27783;42.782;23.274;2022-07-11T05:14:18;95635.47;;;20.76
42119;BMP280;27783;42.782;23.274;2022-07-11T05:16:44;95637.13;;;20.82
42119;BMP280;27783;42.782;23.274;2022-07-11T05:19:09;95637.28;;;20.87
42119;BMP280;27783;42.782;23.274;2022-07-11T05:21:37;95634.72;;;20.75
42119;BMP280;27783;42.782;23.274;2022-07-11T05:24:03;95644.72;;;20.84
42119;BMP280;27783;42.782;23.274;2022-07-11T05:26:29;95650.66;;;20.79
42119;BMP280;27783;42.782;23.274;2022-07-11T05:28:54;95658.50;;;20.65
42119;BMP280;27783;42.782;23.274;2022-07-11T05:31:20;95646.44;;;20.60
42119;BMP280;27783;42.782;23.274;2022-07-11T05:33:45;95649.13;;;20.60
42119;BMP280;27783;42.782;23.274;2022-07-11T05:36:11;95639.59;;;20.59
42119;BMP280;27783;42.782;23.274;2022-07-11T05:38:36;95656.88;;;20.67
42119;BMP280;27783;42.782;23.274;2022-07-11T05:41:01;95650.38;;;20.77
42119;BMP280;27783;42.782;23.274;2022-07-11T05:43:27;95650.38;;;20.77
42119;BMP280;27783;42.782;23.274;2022-07-11T05:45:55;95642.28;;;20.68
42119;BMP280;27783;42.782;23.274;2022-07-11T05:48:21;95649.06;;;20.99
42119;BMP280;27783;42.782;23.274;2022-07-11T05:50:46;95643.84;;;20.87
42119;BMP280;27783;42.782;23.274;2022-07-11T05:53:16;95649.47;;;20.80
42119;BMP280;27783;42.782;23.274;2022-07-11T05:55:41;95648.88;;;20.85
42119;BMP280;27783;42.782;23.274;2022-07-11T05:58:07;95642.06;;;20.84
42119;BMP280;27783;42.782;23.274;2022-07-11T06:00:33;95637.50;;;21.10
42119;BMP280;27783;42.782;23.274;2022-07-11T06:02:58;95640.03;;;21.14
42119;BMP280;27783;42.782;23.274;2022-07-11T06:05:24;95643.03;;;21.16
42119;BMP280;27783;42.782;23.274;2022-07-11T06:07:49;95652.41;;;21.11
42119;BMP280;27783;42.782;23.274;2022-07-11T06:10:33;95649.22;;;21.04
42119;BMP280;27783;42.782;23.274;2022-07-11T06:12:59;95655.03;;;21.03
42119;BMP280;27783;42.782;23.274;2022-07-11T06:15:24;95655.47;;;21.01
42119;BMP280;27783;42.782;23.274;2022-07-11T06:17:50;95656.44;;;21.07
42119;BMP280;27783;42.782;23.274;2022-07-11T06:20:16;95672.94;;;21.05
42119;BMP280;27783;42.782;23.274;2022-07-11T06:22:41;95667.16;;;21.16
42119;BMP280;27783;42.782;23.274;2022-07-11T06:25:07;95671.78;;;21.15
42119;BMP280;27783;42.782;23.274;2022-07-11T06:27:34;95666.56;;;21.20
42119;BMP280;27783;42.782;23.274;2022-07-11T06:30:00;95675.53;;;21.26
42119;BMP280;27783;42.782;23.274;2022-07-11T06:32:25;95679.53;;;21.31
42119;BMP280;27783;42.782;23.274;2022-07-11T06:34:51;95678.50;;;21.28
42119;BMP280;27783;42.782;23.274;2022-07-11T06:37:18;95680.28;;;21.31
42119;BMP280;27783;42.782;23.274;2022-07-11T06:39:43;95689.22;;;21.37
42119;BMP280;27783;42.782;23.274;2022-07-11T06:42:08;95679.00;;;21.53
42119;BMP280;27783;42.782;23.274;2022-07-11T06:44:40;95685.97;;;21.51
42119;BMP280;27783;42.782;23.274;2022-07-11T06:47:05;95692.84;;;21.52
42119;BMP280;27783;42.782;23.274;2022-07-11T06:49:35;95688.06;;;21.64
42119;BMP280;27783;42.782;23.274;2022-07-11T06:52:01;95690.00;;;21.64
42119;BMP280;27783;42.782;23.274;2022-07-11T06:54:27;95685.25;;;21.59
42119;BMP280;27783;42.782;23.274;2022-07-11T06:56:53;95683.91;;;21.89
42119;BMP280;27783;42.782;23.274;2022-07-11T06:59:18;95683.59;;;21.61
42119;BMP280;27783;42.782;23.274;2022-07-11T07:01:43;95676.13;;;21.56
42119;BMP280;27783;42.782;23.274;2022-07-11T07:04:09;95683.44;;;21.47
42119;BMP280;27783;42.782;23.274;2022-07-11T07:06:34;95673.75;;;21.67
42119;BMP280;27783;42.782;23.274;2022-07-11T07:08:59;95670.50;;;21.72
42119;BMP280;27783;42.782;23.274;2022-07-11T07:11:26;95671.38;;;21.60
42119;BMP280;27783;42.782;23.274;2022-07-11T07:13:51;95671.66;;;21.53
42119;BMP280;27783;42.782;23.274;2022-07-11T07:16:17;95660.94;;;21.53
42119;BMP280;27783;42.782;23.274;2022-07-11T07:18:42;95680.34;;;21.92
42119;BMP280;27783;42.782;23.274;2022-07-11T07:21:11;95675.56;;;21.88
42119;BMP280;27783;42.782;23.274;2022-07-11T07:23:36;95663.34;;;21.87
42119;BMP280;27783;42.782;23.274;2022-07-11T07:26:02;95667.69;;;21.84
42119;BMP280;27783;42.782;23.274;2022-07-11T07:28:28;95668.72;;;21.87
42119;BMP280;27783;42.782;23.274;2022-07-11T07:30:54;95670.63;;;21.86
42119;BMP280;27783;42.782;23.274;2022-07-11T07:33:19;95669.00;;;21.97
42119;BMP280;27783;42.782;23.274;2022-07-11T07:35:44;95663.34;;;21.95
42119;BMP280;27783;42.782;23.274;2022-07-11T07:38:10;95650.81;;;21.92
42119;BMP280;27783;42.782;23.274;2022-07-11T07:40:35;95671.69;;;21.97
42119;BMP280;27783;42.782;23.274;2022-07-11T07:43:00;95658.25;;;22.06
42119;BMP280;27783;42.782;23.274;2022-07-11T07:45:26;95655.72;;;22.11
42119;BMP280;27783;42.782;23.274;2022-07-11T07:47:52;95655.25;;;22.13
42119;BMP280;27783;42.782;23.274;2022-07-11T07:50:17;95661.06;;;22.20
42119;BMP280;27783;42.782;23.274;2022-07-11T07:52:42;95657.63;;;22.20
42119;BMP280;27783;42.782;23.274;2022-07-11T07:55:08;95658.84;;;22.19
42119;BMP280;27783;42.782;23.274;2022-07-11T07:57:33;95648.06;;;22.27
42119;BMP280;27783;42.782;23.274;2022-07-11T07:59:59;95651.50;;;22.28
42119;BMP280;27783;42.782;23.274;2022-07-11T08:02:43;95653.38;;;22.36
42119;BMP280;27783;42.782;23.274;2022-07-11T08:05:09;95658.91;;;22.33
42119;BMP280;27783;42.782;23.274;2022-07-11T08:07:34;95667.44;;;22.31
42119;BMP280;27783;42.782;23.274;2022-07-11T08:10:04;95676.22;;;22.40
42119;BMP280;27783;42.782;23.274;2022-07-11T08:12:30;95668.88;;;22.50
42119;BMP280;27783;42.782;23.274;2022-07-11T08:14:55;95672.03;;;22.39
42119;BMP280;27783;42.782;23.274;2022-07-11T08:17:20;95673.81;;;22.42
42119;BMP280;27783;42.782;23.274;2022-07-11T08:19:46;95670.50;;;22.65
42119;BMP280;27783;42.782;23.274;2022-07-11T08:22:11;95671.53;;;22.67
42119;BMP280;27783;42.782;23.274;2022-07-11T08:24:37;95675.72;;;22.68
42119;BMP280;27783;42.782;23.274;2022-07-11T08:27:03;95675.88;;;22.65
42119;BMP280;27783;42.782;23.274;2022-07-11T08:29:28;95671.66;;;22.72
42119;BMP280;27783;42.782;23.274;2022-07-11T08:31:53;95671.22;;;22.74
42119;BMP280;27783;42.782;23.274;2022-07-11T08:34:19;95675.56;;;22.72
42119;BMP280;27783;42.782;23.274;2022-07-11T08:36:44;95673.00;;;22.77
42119;BMP280;27783;42.782;23.274;2022-07-11T08:39:10;95665.94;;;22.88
42119;BMP280;27783;42.782;23.274;2022-07-11T08:41:42;95670.31;;;22.77
42119;BMP280;27783;42.782;23.274;2022-07-11T08:44:08;95669.28;;;22.74
42119;BMP280;27783;42.782;23.274;2022-07-11T08:46:35;95667.31;;;22.75
42119;BMP280;27783;42.782;23.274;2022-07-11T08:49:02;95678.38;;;22.77
42119;BMP280;27783;42.782;23.274;2022-07-11T08:51:28;95675.94;;;22.79
42119;BMP280;27783;42.782;23.274;2022-07-11T08:53:54;95669.28;;;22.74
42119;BMP280;27783;42.782;23.274;2022-07-11T08:56:21;95662.50;;;22.79
42119;BMP280;27783;42.782;23.274;2022-07-11T08:58:48;95664.25;;;22.90
42119;BMP280;27783;42.782;23.274;2022-07-11T09:01:15;95661.84;;;22.92
42119;BMP280;27783;42.782;23.274;2022-07-11T09:03:41;95664.53;;;22.92
42119;BMP280;27783;42.782;23.274;2022-07-11T09:06:07;95665.69;;;23.00
42119;BMP280;27783;42.782;23.274;2022-07-11T09:08:32;95663.47;;;22.99
42119;BMP280;27783;42.782;23.274;2022-07-11T09:10:58;95685.72;;;22.99
42119;BMP280;27783;42.782;23.274;2022-07-11T09:13:28;95672.59;;;23.01
42119;BMP280;27783;42.782;23.274;2022-07-11T09:16:01;95680.50;;;22.96
42119;BMP280;27783;42.782;23.274;2022-07-11T09:21:13;95666.84;;;23.08
42119;BMP280;27783;42.782;23.274;2022-07-11T09:23:59;95681.44;;;23.16
42119;BMP280;27783;42.782;23.274;2022-07-11T09:26:45;95659.50;;;23.17
42119;BMP280;27783;42.782;23.274;2022-07-11T09:29:21;95663.50;;;23.22
42119;BMP280;27783;42.782;23.274;2022-07-11T09:31:50;95672.94;;;23.17
42119;BMP280;27783;42.782;23.274;2022-07-11T09:34:17;95670.38;;;23.22
42119;BMP280;27783;42.782;23.274;2022-07-11T09:36:52;95677.69;;;23.22
42119;BMP280;27783;42.782;23.274;2022-07-11T09:39:26;95679.97;;;23.38
42119;BMP280;27783;42.782;23.274;2022-07-11T09:41:52;95673.75;;;23.55
42119;BMP280;27783;42.782;23.274;2022-07-11T09:46:48;95667.09;;;23.64
42119;BMP280;27783;42.782;23.274;2022-07-11T09:49:15;95681.19;;;23.59
42119;BMP280;27783;42.782;23.274;2022-07-11T09:51:41;95673.56;;;23.58
42119;BMP280;27783;42.782;23.274;2022-07-11T09:54:08;95688.69;;;23.55
42119;BMP280;27783;42.782;23.274;2022-07-11T09:56:42;95671.28;;;23.65
42119;BMP280;27783;42.782;23.274;2022-07-11T09:59:10;95662.84;;;23.72
42119;BMP280;27783;42.782;23.274;2022-07-11T10:01:36;95665.16;;;24.02
42119;BMP280;27783;42.782;23.274;2022-07-11T10:04:06;95671.09;;;23.69
42119;BMP280;27783;42.782;23.274;2022-07-11T10:06:32;95678.41;;;23.91
42119;BMP280;27783;42.782;23.274;2022-07-11T10:08:58;95670.56;;;23.79
42119;BMP280;27783;42.782;23.274;2022-07-11T10:11:23;95684.03;;;23.79
42119;BMP280;27783;42.782;23.274;2022-07-11T10:13:49;95685.41;;;23.74
42119;BMP280;27783;42.782;23.274;2022-07-11T10:19:25;95668.97;;;23.72
42119;BMP280;27783;42.782;23.274;2022-07-11T10:27:13;95681.88;;;24.06
42119;BMP280;27783;42.782;23.274;2022-07-11T10:29:49;95682.16;;;23.93
42119;BMP280;27783;42.782;23.274;2022-07-11T10:32:15;95671.66;;;23.95
42119;BMP280;27783;42.782;23.274;2022-07-11T10:34:41;95673.50;;;24.04
42119;BMP280;27783;42.782;23.274;2022-07-11T10:37:08;95678.34;;;24.00
42119;BMP280;27783;42.782;23.274;2022-07-11T10:39:35;95673.16;;;23.96
42119;BMP280;27783;42.782;23.274;2022-07-11T10:42:04;95676.38;;;24.00
42119;BMP280;27783;42.782;23.274;2022-07-11T10:44:56;95675.19;;;24.01
42119;BMP280;27783;42.782;23.274;2022-07-11T10:47:51;95681.69;;;24.09
42119;BMP280;27783;42.782;23.274;2022-07-11T10:50:26;95674.47;;;24.15
42119;BMP280;27783;42.782;23.274;2022-07-11T10:52:56;95677.53;;;24.22
42119;BMP280;27783;42.782;23.274;2022-07-11T10:55:35;95683.72;;;24.14
42119;BMP280;27783;42.782;23.274;2022-07-11T11:00:49;95675.75;;;24.33
42119;BMP280;27783;42.782;23.274;2022-07-11T11:03:32;95674.84;;;24.36
42119;BMP280;27783;42.782;23.274;2022-07-11T11:05:57;95680.16;;;24.59
42119;BMP280;27783;42.782;23.274;2022-07-11T11:13:39;95670.94;;;24.37
42119;BMP280;27783;42.782;23.274;2022-07-11T11:16:24;95677.16;;;24.57
42119;BMP280;27783;42.782;23.274;2022-07-11T11:18:52;95682.19;;;24.64
42119;BMP280;27783;42.782;23.274;2022-07-11T11:21:19;95676.13;;;24.83
42119;BMP280;27783;42.782;23.274;2022-07-11T11:24:05;95679.84;;;24.85
42119;BMP280;27783;42.782;23.274;2022-07-11T11:26:43;95665.72;;;24.76
42119;BMP280;27783;42.782;23.274;2022-07-11T11:29:25;95674.66;;;24.82
42119;BMP280;27783;42.782;23.274;2022-07-11T11:31:55;95671.59;;;24.74
42119;BMP280;27783;42.782;23.274;2022-07-11T11:34:23;95673.72;;;24.85
42119;BMP280;27783;42.782;23.274;2022-07-11T11:36:58;95667.19;;;24.91
42119;BMP280;27783;42.782;23.274;2022-07-11T11:39:35;95681.34;;;24.72
42119;BMP280;27783;42.782;23.274;2022-07-11T11:42:07;95677.72;;;24.75
42119;BMP280;27783;42.782;23.274;2022-07-11T11:44:34;95675.41;;;24.82
42119;BMP280;27783;42.782;23.274;2022-07-11T11:46:59;95675.78;;;24.75
42119;BMP280;27783;42.782;23.274;2022-07-11T11:49:25;95678.81;;;24.83
42119;BMP280;27783;42.782;23.274;2022-07-11T11:51:54;95680.19;;;24.92
42119;BMP280;27783;42.782;23.274;2022-07-11T11:54:22;95672.06;;;25.21
42119;BMP280;27783;42.782;23.274;2022-07-11T11:56:48;95677.56;;;25.12
42119;BMP280;27783;42.782;23.274;2022-07-11T11:59:15;95683.28;;;24.86
42119;BMP280;27783;42.782;23.274;2022-07-11T12:01:50;95676.41;;;24.85
42119;BMP280;27783;42.782;23.274;2022-07-11T12:04:17;95676.44;;;25.18
42119;BMP280;27783;42.782;23.274;2022-07-11T12:06:44;95683.03;;;25.17
42119;BMP280;27783;42.782;23.274;2022-07-11T12:09:13;95678.84;;;25.16
42119;BMP280;27783;42.782;23.274;2022-07-11T12:11:47;95679.03;;;25.13
42119;BMP280;27783;42.782;23.274;2022-07-11T12:14:14;95678.47;;;25.09
42119;BMP280;27783;42.782;23.274;2022-07-11T12:16:53;95678.78;;;24.97
42119;BMP280;27783;42.782;23.274;2022-07-11T12:19:23;95680.34;;;25.17
42119;BMP280;27783;42.782;23.274;2022-07-11T12:21:52;95675.16;;;25.33
42119;BMP280;27783;42.782;23.274;2022-07-11T12:24:20;95676.44;;;25.18
42119;BMP280;27783;42.782;23.274;2022-07-11T12:26:50;95679.66;;;25.22
42119;BMP280;27783;42.782;23.274;2022-07-11T12:29:24;95681.66;;;25.22
42119;BMP280;27783;42.782;23.274;2022-07-11T12:32:10;95672.41;;;25.28
42119;BMP280;27783;42.782;23.274;2022-07-11T12:37:02;95673.41;;;25.69
42119;BMP280;27783;42.782;23.274;2022-07-11T12:39:31;95677.50;;;25.79
42119;BMP280;27783;42.782;23.274;2022-07-11T12:41:58;95665.19;;;26.77
42119;BMP280;27783;42.782;23.274;2022-07-11T12:44:30;95659.16;;;30.77
42119;BMP280;27783;42.782;23.274;2022-07-11T12:47:22;95659.94;;;33.58
42119;BMP280;27783;42.782;23.274;2022-07-11T12:49:58;95644.44;;;35.55
42119;BMP280;27783;42.782;23.274;2022-07-11T12:52:36;95644.59;;;36.68
42119;BMP280;27783;42.782;23.274;2022-07-11T12:55:01;95645.44;;;37.41
42119;BMP280;27783;42.782;23.274;2022-07-11T12:57:27;95655.28;;;37.88
42119;BMP280;27783;42.782;23.274;2022-07-11T12:59:53;95647.53;;;38.54
42119;BMP280;27783;42.782;23.274;2022-07-11T13:02:18;95651.25;;;38.80
42119;BMP280;27783;42.782;23.274;2022-07-11T13:04:51;95647.81;;;39.04
42119;BMP280;27783;42.782;23.274;2022-07-11T13:12:41;95644.63;;;39.95
42119;BMP280;27783;42.782;23.274;2022-07-11T13:15:09;95643.75;;;40.25
42119;BMP280;27783;42.782;23.274;2022-07-11T13:17:42;95644.06;;;40.13
42119;BMP280;27783;42.782;23.274;2022-07-11T13:20:10;95640.16;;;40.32
42119;BMP280;27783;42.782;23.274;2022-07-11T13:22:35;95633.22;;;40.40
42119;BMP280;27783;42.782;23.274;2022-07-11T13:25:11;95641.84;;;40.44
42119;BMP280;27783;42.782;23.274;2022-07-11T13:27:46;95632.25;;;40.62
42119;BMP280;27783;42.782;23.274;2022-07-11T13:30:14;95642.50;;;40.78
42119;BMP280;27783;42.782;23.274;2022-07-11T13:32:46;95626.47;;;40.76
42119;BMP280;27783;42.782;23.274;2022-07-11T13:35:21;95629.16;;;40.58
42119;BMP280;27783;42.782;23.274;2022-07-11T13:37:47;95642.78;;;40.73
42119;BMP280;27783;42.782;23.274;2022-07-11T13:40:18;95636.75;;;40.67
42119;BMP280;27783;42.782;23.274;2022-07-11T13:42:45;95637.50;;;40.51
42119;BMP280;27783;42.782;23.274;2022-07-11T13:45:20;95644.16;;;40.22
42119;BMP280;27783;42.782;23.274;2022-07-11T13:47:47;95631.63;;;39.48
42119;BMP280;27783;42.782;23.274;2022-07-11T13:50:14;95656.09;;;41.44
42119;BMP280;27783;42.782;23.274;2022-07-11T13:52:39;95636.94;;;40.69
42119;BMP280;27783;42.782;23.274;2022-07-11T13:55:05;95625.38;;;40.21
42119;BMP280;27783;42.782;23.274;2022-07-11T13:57:32;95627.69;;;40.57
42119;BMP280;27783;42.782;23.274;2022-07-11T13:59:58;95627.84;;;40.85
42119;BMP280;27783;42.782;23.274;2022-07-11T14:02:25;95628.00;;;40.44
42119;BMP280;27783;42.782;23.274;2022-07-11T14:04:51;95633.91;;;40.15
42119;BMP280;27783;42.782;23.274;2022-07-11T14:07:16;95629.84;;;40.16
42119;BMP280;27783;42.782;23.274;2022-07-11T14:09:43;95630.19;;;40.20
42119;BMP280;27783;42.782;23.274;2022-07-11T14:12:10;95640.06;;;38.78
42119;BMP280;27783;42.782;23.274;2022-07-11T14:14:42;95636.00;;;39.34
42119;BMP280;27783;42.782;23.274;2022-07-11T14:17:08;95634.19;;;39.70
42119;BMP280;27783;42.782;23.274;2022-07-11T14:19:34;95627.81;;;40.00
42119;BMP280;27783;42.782;23.274;2022-07-11T14:22:04;95634.25;;;40.19
42119;BMP280;27783;42.782;23.274;2022-07-11T14:24:34;95629.13;;;39.83
42119;BMP280;27783;42.782;23.274;2022-07-11T14:27:02;95621.63;;;40.09
42119;BMP280;27783;42.782;23.274;2022-07-11T14:29:28;95626.75;;;39.96
42119;BMP280;27783;42.782;23.274;2022-07-11T14:32:03;95621.31;;;39.89